San Ardo, California
Current Conditions -  °F | °C
As of 10:53 PM on Saturday 27 Dec 2014 (Local Time) from KPRB Reporting Station
Clear Clear  
Wind Chill: 36°   Ceiling: Unl
Heat Index: 39°   Visibility: 10mi
Dew Point: 34°   Wind: 5mph
Humidity: 82%   Direction: 70°ENE
Pressure: 30.35"   Gusts: NA
Location:  36.02°N, 120.91°W
Report Text: KPRB 280653Z AUTO 07004KT 10SM CLR 04/01 A3035 RMK AO2 SLP283 T00390011 TSNO
Loading
Personal Weather Stations






























Interactive Weather Map New forecast layout! Learn more

10-Day Weather Forecast

Advertisements
Track Severe Weather on mobile